Time;durP1;ratioP1;P1;durP2;ratioP2;P2;SDS_P1;SDS_P2;PMS_P1;PMS_P2;Temp;Humidity;BMP_temperature;BMP_pressure;BME280_temperature;BME280_humidity;BME280_pressure;Samples;Min_cycle;Max_cycle;Signal;HPM_P1;HPM_P2
2024/01/12 00:04:07;;;;;;;2.97;1.20;;;;;;;-14.19;90.48;101153.97;10511844;28;20044;-67
2024/01/12 00:09:11;;;;;;;3.13;1.40;;;;;;;-14.27;90.10;101141.31;10492190;28;20049;-66
2024/01/12 00:14:16;;;;;;;2.40;1.30;;;;;;;-14.25;91.11;101138.56;10542302;28;20064;-66
2024/01/12 00:19:19;;;;;;;3.08;1.33;;;;;;;-14.25;90.51;101128.03;10534654;28;20503;-66
2024/01/12 00:24:21;;;;;;;5.30;1.83;;;;;;;-14.34;90.87;101134.81;10531413;28;20047;-66
2024/01/12 00:29:23;;;;;;;3.55;1.70;;;;;;;-14.37;90.02;101124.50;10543432;28;20040;-68
2024/01/12 00:34:26;;;;;;;3.42;1.40;;;;;;;-14.45;90.56;101119.78;10549307;28;20089;-66
2024/01/12 00:39:28;;;;;;;3.22;1.80;;;;;;;-14.43;90.33;101117.84;10555464;28;20508;-67
2024/01/12 00:44:31;;;;;;;2.85;1.98;;;;;;;-14.45;90.78;101117.16;10530603;28;20041;-68
2024/01/12 00:49:33;;;;;;;3.70;1.70;;;;;;;-14.47;90.58;101115.59;10531912;28;20155;-68
2024/01/12 00:54:36;;;;;;;2.85;1.42;;;;;;;-14.54;91.37;101109.06;10528202;28;20524;-69
2024/01/12 00:59:39;;;;;;;2.78;1.10;;;;;;;-14.55;90.94;101110.88;10523746;28;20044;-68
2024/01/12 01:04:42;;;;;;;2.33;1.40;;;;;;;-14.60;91.34;101105.06;10544678;28;20405;-67
2024/01/12 01:09:44;;;;;;;2.88;1.40;;;;;;;-14.66;91.21;101097.59;10549842;28;20037;-66
2024/01/12 01:14:47;;;;;;;3.30;1.40;;;;;;;-14.58;91.06;101089.16;10530020;28;20428;-67
2024/01/12 01:19:49;;;;;;;2.30;1.13;;;;;;;-14.67;90.95;101085.38;10526531;28;20051;-68
2024/01/12 01:24:51;;;;;;;1.63;1.10;;;;;;;-14.71;91.08;101081.28;10558863;28;20044;-68
2024/01/12 01:29:54;;;;;;;4.47;1.20;;;;;;;-14.68;90.82;101081.91;10532702;28;20043;-68
2024/01/12 01:34:56;;;;;;;3.75;1.70;;;;;;;-14.70;90.25;101080.34;10518581;28;20487;-67
2024/01/12 01:40:01;;;;;;;5.35;1.77;;;;;;;-14.74;90.10;101076.25;10519111;28;20039;-67
2024/01/12 01:45:04;;;;;;;2.85;1.35;;;;;;;-14.76;90.37;101067.59;10523742;28;20071;-67
2024/01/12 01:50:07;;;;;;;2.70;1.13;;;;;;;-14.81;90.15;101048.66;10524456;28;20508;-67
2024/01/12 01:55:12;;;;;;;2.88;1.48;;;;;;;-14.87;90.59;101043.81;10523897;28;20036;-67
2024/01/12 02:00:15;;;;;;;3.35;1.40;;;;;;;-15.00;89.64;101036.78;10525777;28;20063;-67
2024/01/12 02:05:18;;;;;;;3.30;1.65;;;;;;;-15.00;89.93;101034.16;10517813;28;20036;-66
2024/01/12 02:10:20;;;;;;;2.58;1.45;;;;;;;-15.02;90.29;101028.16;10524742;28;20500;-67
2024/01/12 02:15:23;;;;;;;2.53;1.85;;;;;;;-15.09;90.46;101007.66;10536957;28;20032;-67
2024/01/12 02:20:25;;;;;;;4.22;1.80;;;;;;;-15.11;90.29;100994.56;10545246;28;20036;-67
2024/01/12 02:25:27;;;;;;;2.25;1.50;;;;;;;-15.10;90.44;100984.88;10525074;28;20040;-67
2024/01/12 02:30:30;;;;;;;3.88;2.05;;;;;;;-15.11;90.68;100978.78;10513757;28;20047;-67
2024/01/12 02:35:33;;;;;;;6.32;1.80;;;;;;;-15.09;90.49;100976.91;10538762;28;20468;-67
2024/01/12 02:40:35;;;;;;;5.60;1.88;;;;;;;-15.09;90.19;100966.38;10520133;28;20035;-67
2024/01/12 02:45:37;;;;;;;3.92;2.13;;;;;;;-15.11;90.64;100968.25;10530044;28;20544;-67
2024/01/12 02:50:39;;;;;;;2.88;1.35;;;;;;;-15.14;90.25;100955.31;10528676;28;20074;-67
2024/01/12 02:55:42;;;;;;;2.85;2.00;;;;;;;-15.15;90.91;100940.47;10511453;28;20689;-67
2024/01/12 03:00:44;;;;;;;4.03;2.13;;;;;;;-15.05;90.37;100945.94;10523294;28;20035;-67
2024/01/12 03:05:48;;;;;;;4.82;2.20;;;;;;;-14.94;90.28;100938.09;10559657;28;20047;-67
2024/01/12 03:10:50;;;;;;;4.20;2.10;;;;;;;-15.03;90.01;100934.34;10538009;28;20032;-67
2024/01/12 03:15:53;;;;;;;5.50;2.13;;;;;;;-15.05;90.56;100923.09;10501559;28;20043;-67
2024/01/12 03:20:56;;;;;;;2.45;1.73;;;;;;;-15.04;90.48;100916.03;10554914;28;20032;-67
2024/01/12 03:25:59;;;;;;;4.43;2.47;;;;;;;-15.03;89.84;100902.75;10558170;28;20062;-67
2024/01/12 03:31:03;;;;;;;4.30;2.42;;;;;;;-14.95;90.47;100897.75;10540496;28;20059;-67
2024/01/12 03:36:06;;;;;;;4.75;2.33;;;;;;;-14.86;90.61;100903.31;10548370;28;20428;-66
2024/01/12 03:41:09;;;;;;;6.93;2.97;;;;;;;-14.84;90.86;100898.78;10530263;28;20028;-67
2024/01/12 03:46:12;;;;;;;6.15;2.53;;;;;;;-14.84;90.56;100901.41;10534669;28;20419;-67
2024/01/12 03:51:14;;;;;;;4.82;1.95;;;;;;;-14.87;90.09;100893.75;10534294;28;20043;-67
2024/01/12 03:56:17;;;;;;;4.80;1.60;;;;;;;-14.84;89.79;100878.56;10535496;28;20972;-67
2024/01/12 04:01:22;;;;;;;4.28;1.13;;;;;;;-14.87;90.03;100877.94;10523838;28;20055;-67
2024/01/12 04:06:25;;;;;;;1.20;1.10;;;;;;;-14.87;90.36;100855.09;10528915;28;20055;-66
2024/01/12 04:11:27;;;;;;;3.70;2.10;;;;;;;-14.82;90.60;100845.03;10518139;28;20032;-67
2024/01/12 04:16:30;;;;;;;1.63;1.52;;;;;;;-14.79;90.75;100841.34;10538103;28;20048;-67
2024/01/12 04:21:32;;;;;;;2.75;1.45;;;;;;;-14.88;90.26;100829.72;10565904;28;20029;-68
2024/01/12 04:26:37;;;;;;;2.05;1.85;;;;;;;-14.88;90.25;100826.25;10529384;28;20041;-69
2024/01/12 04:31:40;;;;;;;1.38;1.27;;;;;;;-14.87;89.91;100823.50;10519295;28;20048;-68
2024/01/12 04:36:43;;;;;;;2.22;1.42;;;;;;;-14.98;90.30;100826.06;10525784;28;20059;-68
2024/01/12 04:41:46;;;;;;;3.72;1.33;;;;;;;-14.98;90.49;100821.63;10520649;28;20041;-69
2024/01/12 04:46:49;;;;;;;1.65;1.13;;;;;;;-14.96;90.15;100822.38;10528838;28;20053;-69
2024/01/12 04:51:52;;;;;;;4.07;1.92;;;;;;;-15.03;90.90;100825.56;10526136;28;20036;-68
2024/01/12 04:56:55;;;;;;;2.60;1.42;;;;;;;-15.08;90.71;100820.66;10528164;28;20058;-69
2024/01/12 05:01:58;;;;;;;1.35;1.25;;;;;;;-15.09;90.37;100812.88;10526800;28;20055;-69
2024/01/12 05:07:01;;;;;;;8.43;1.70;;;;;;;-15.16;90.32;100815.09;10527767;28;20462;-69
2024/01/12 05:12:06;;;;;;;3.85;1.88;;;;;;;-15.17;90.17;100808.16;10519694;28;20040;-68
2024/01/12 05:17:08;;;;;;;2.28;1.48;;;;;;;-15.16;90.08;100809.00;10528040;28;20040;-68
2024/01/12 05:22:11;;;;;;;5.05;1.58;;;;;;;-15.21;90.38;100790.91;10524164;28;20131;-69
2024/01/12 05:27:14;;;;;;;2.65;1.95;;;;;;;-15.22;90.57;100791.88;10526492;28;20136;-69
2024/01/12 05:32:17;;;;;;;2.00;1.48;;;;;;;-15.19;89.67;100786.38;10526602;28;20051;-69
2024/01/12 05:37:20;;;;;;;2.45;2.15;;;;;;;-15.08;89.83;100780.34;10526388;28;20036;-69
2024/01/12 05:42:23;;;;;;;4.88;2.08;;;;;;;-15.17;90.48;100779.22;10525685;28;20048;-68
2024/01/12 05:47:25;;;;;;;1.60;1.50;;;;;;;-15.18;89.63;100780.16;10525528;28;20048;-68
2024/01/12 05:52:28;;;;;;;2.47;1.52;;;;;;;-15.28;90.12;100769.47;10507930;28;20040;-69
2024/01/12 05:57:31;;;;;;;2.92;1.67;;;;;;;-15.19;90.34;100761.84;10525107;28;20420;-69
2024/01/12 06:02:33;;;;;;;3.20;1.77;;;;;;;-15.13;89.66;100764.03;10521790;28;20033;-69
2024/01/12 06:07:36;;;;;;;1.75;1.17;;;;;;;-15.12;90.26;100757.81;10519004;28;20043;-69
2024/01/12 06:12:38;;;;;;;5.25;1.52;;;;;;;-15.09;90.26;100755.81;10523119;28;20420;-69
2024/01/12 06:17:41;;;;;;;3.63;2.03;;;;;;;-15.12;90.19;100750.75;10524974;28;20033;-69
2024/01/12 06:22:43;;;;;;;6.20;2.58;;;;;;;-15.07;90.18;100732.00;10522453;28;20127;-69
2024/01/12 06:27:45;;;;;;;8.35;2.80;;;;;;;-15.10;89.77;100735.69;10524812;28;20045;-69
2024/01/12 06:32:48;;;;;;;5.57;2.58;;;;;;;-15.08;89.55;100741.69;10524006;28;20059;-69
2024/01/12 06:37:51;;;;;;;5.63;2.80;;;;;;;-14.89;89.89;100745.59;10523437;28;20040;-69
2024/01/12 06:42:53;;;;;;;7.38;3.17;;;;;;;-15.06;89.66;100729.25;10497843;28;20421;-69
2024/01/12 06:47:55;;;;;;;2.22;1.90;;;;;;;-15.13;89.39;100722.75;10498726;28;20516;-69
2024/01/12 06:53:00;;;;;;;3.72;1.98;;;;;;;-15.24;88.44;100720.94;10523926;28;20120;-69
2024/01/12 06:58:03;;;;;;;6.50;2.53;;;;;;;-15.19;88.99;100728.50;10521847;28;20036;-68
2024/01/12 07:03:06;;;;;;;3.13;1.92;;;;;;;-15.18;88.58;100734.59;10522401;28;20045;-69
2024/01/12 07:08:08;;;;;;;5.05;1.95;;;;;;;-15.04;88.42;100732.59;10521039;28;20044;-68
2024/01/12 07:13:10;;;;;;;6.20;2.13;;;;;;;-14.74;88.46;100741.78;10522707;28;20040;-69
2024/01/12 07:18:13;;;;;;;3.00;2.53;;;;;;;-14.77;88.04;100740.19;10508534;28;20237;-69
2024/01/12 07:23:15;;;;;;;1.85;1.67;;;;;;;-14.78;88.32;100729.78;10522638;28;20033;-68
2024/01/12 07:28:18;;;;;;;5.20;1.98;;;;;;;-13.58;86.98;100732.59;10522727;28;20512;-69
2024/01/12 07:33:21;;;;;;;8.30;3.92;;;;;;;-13.64;84.63;100723.38;10521720;28;20048;-70
2024/01/12 07:38:24;;;;;;;8.00;2.38;;;;;;;-13.85;84.15;100725.97;10521418;28;20044;-69
2024/01/12 07:43:33;;;;;;;2.53;1.88;;;;;;;-14.28;83.87;100717.13;10522946;28;20036;-68
2024/01/12 07:48:35;;;;;;;;;;;;;;;-14.38;84.04;100723.13;10522769;28;20057;-68
2024/01/12 07:53:40;;;;;;;4.40;2.67;;;;;;;-14.31;84.48;100716.41;10491069;28;19920;-68
2024/01/12 07:58:44;;;;;;;5.60;2.08;;;;;;;-14.36;84.97;100725.63;10523035;28;20546;-68
2024/01/12 08:03:47;;;;;;;2.83;1.90;;;;;;;-14.16;84.74;100724.91;10506430;28;20037;-69
2024/01/12 08:08:49;;;;;;;2.53;2.15;;;;;;;-13.84;84.55;100718.88;10511870;28;20040;-69
2024/01/12 08:13:52;;;;;;;3.05;2.28;;;;;;;-13.64;84.78;100714.63;10523835;28;20518;-69
2024/01/12 08:18:54;;;;;;;6.80;2.22;;;;;;;-13.37;84.65;100714.16;10519735;28;20040;-69
2024/01/12 08:23:57;;;;;;;4.80;2.50;;;;;;;-13.40;84.29;100718.75;10529366;28;20037;-68
2024/01/12 08:29:01;;;;;;;6.13;4.13;;;;;;;-13.13;84.44;100706.84;10529376;28;20044;-68
2024/01/12 08:34:04;;;;;;;5.05;2.50;;;;;;;-12.89;84.25;100723.28;10519783;28;20041;-68
2024/01/12 08:39:06;;;;;;;8.63;3.40;;;;;;;-12.93;83.74;100721.03;10526906;28;20032;-69
2024/01/12 08:44:10;;;;;;;4.35;3.65;;;;;;;-13.10;83.44;100728.56;10527583;28;20089;-68
2024/01/12 08:49:13;;;;;;;4.53;2.63;;;;;;;-12.92;83.22;100728.00;10523143;28;20055;-68
2024/01/12 08:54:16;;;;;;;4.35;2.58;;;;;;;-12.96;83.34;100721.28;10526158;28;20064;-68
2024/01/12 08:59:20;;;;;;;9.68;3.83;;;;;;;-13.00;83.53;100720.72;10527082;28;20846;-68
2024/01/12 09:04:23;;;;;;;7.03;2.92;;;;;;;-13.24;84.01;100723.59;10525965;28;20033;-68
2024/01/12 09:09:25;;;;;;;5.03;2.50;;;;;;;-13.39;84.48;100706.38;10526131;28;20044;-69
2024/01/12 09:14:28;;;;;;;9.40;1.92;;;;;;;-13.43;85.01;100707.59;10527613;28;20826;-68
2024/01/12 09:19:30;;;;;;;4.20;2.85;;;;;;;-13.43;85.34;100703.16;10500186;28;20047;-68
2024/01/12 09:24:32;;;;;;;8.30;2.72;;;;;;;-13.25;85.94;100695.53;10522382;28;20619;-68
2024/01/12 09:29:35;;;;;;;4.78;2.50;;;;;;;-13.34;85.36;100712.16;10526031;28;20032;-68
2024/01/12 09:34:37;;;;;;;2.53;1.65;;;;;;;-13.45;86.16;100706.91;10523561;28;20063;-67
2024/01/12 09:39:39;;;;;;;5.60;2.58;;;;;;;-13.38;86.42;100710.69;10523096;28;20424;-67
2024/01/12 09:44:47;;;;;;;2.38;2.00;;;;;;;-13.56;86.64;100697.19;10520211;28;20028;-68
2024/01/12 09:49:49;;;;;;;5.05;2.60;;;;;;;-13.49;86.08;100679.09;10525608;28;20048;-67
2024/01/12 09:54:52;;;;;;;4.53;2.72;;;;;;;-13.50;86.41;100682.69;10514642;28;20036;-66
2024/01/12 09:59:54;;;;;;;3.90;2.72;;;;;;;-13.51;86.60;100688.94;10519217;28;20043;-67
2024/01/12 10:04:57;;;;;;;6.03;3.10;;;;;;;-13.61;86.96;100685.38;10522849;28;20063;-67
2024/01/12 10:09:59;;;;;;;5.03;3.00;;;;;;;-13.64;86.33;100678.53;10523725;28;20047;-66
2024/01/12 10:15:02;;;;;;;3.95;3.15;;;;;;;-13.56;86.81;100689.28;10504808;28;20040;-67
2024/01/12 10:20:06;;;;;;;6.63;3.92;;;;;;;-13.72;86.76;100681.78;10503213;28;20051;-67
2024/01/12 10:25:08;;;;;;;15.02;5.22;;;;;;;-13.62;87.54;100686.31;10488502;28;20063;-67
2024/01/12 10:30:11;;;;;;;10.88;5.35;;;;;;;-13.75;88.01;100686.47;10500826;28;20420;-66
2024/01/12 10:35:14;;;;;;;5.38;3.38;;;;;;;-13.80;88.86;100686.03;10509603;28;20033;-67
2024/01/12 10:40:17;;;;;;;5.38;3.42;;;;;;;-13.64;89.46;100689.09;10496715;28;20111;-67
2024/01/12 10:45:21;;;;;;;3.08;2.80;;;;;;;-13.73;89.35;100687.19;10511449;28;20072;-67
2024/01/12 10:50:24;;;;;;;5.38;2.75;;;;;;;-13.68;89.76;100695.59;10518265;28;20064;-66
2024/01/12 10:55:33;;;;;;;12.18;3.63;;;;;;;-13.61;89.52;100682.72;10492469;28;20047;-66
2024/01/12 11:00:35;;;;;;;3.08;2.70;;;;;;;-13.62;89.70;100697.72;10521458;28;20040;-66
2024/01/12 11:05:37;;;;;;;8.40;3.53;;;;;;;-13.62;90.07;100692.44;10515767;28;20041;-65
2024/01/12 11:10:54;;;;;;;5.40;2.78;;;;;;;-13.58;90.21;100693.84;10526989;28;20044;-64
2024/01/12 11:15:56;;;;;;;4.22;3.28;;;;;;;-13.66;90.97;100688.38;10491822;28;20040;-67
2024/01/12 11:21:02;;;;;;;4.80;2.80;;;;;;;-13.57;90.33;100695.53;10499718;28;20037;-66
2024/01/12 11:26:04;;;;;;;3.80;1.75;;;;;;;-13.59;91.11;100688.72;10521433;28;20036;-67
2024/01/12 11:31:09;;;;;;;3.05;1.88;;;;;;;-13.61;90.63;100693.28;10516898;28;20048;-68
2024/01/12 11:36:17;;;;;;;3.33;2.45;;;;;;;-13.62;91.08;100699.50;10511813;28;20040;-68
2024/01/12 11:41:19;;;;;;;4.63;2.22;;;;;;;-13.57;91.96;100706.09;10492967;28;20041;-66
2024/01/12 11:46:26;;;;;;;6.80;3.38;;;;;;;-13.66;91.45;100700.72;10502344;28;20052;-69
2024/01/12 11:51:28;;;;;;;7.70;3.25;;;;;;;-13.58;92.47;100698.28;10523100;28;20048;-68
2024/01/12 11:56:30;;;;;;;5.50;3.97;;;;;;;-13.46;92.72;100706.06;10521995;28;20043;-67
2024/01/12 12:01:33;;;;;;;6.95;3.10;;;;;;;-13.42;92.87;100704.84;10519453;28;20040;-68
2024/01/12 12:06:36;;;;;;;7.28;4.82;;;;;;;-13.38;92.18;100709.84;10522079;28;20037;-65
2024/01/12 12:11:38;;;;;;;6.57;4.03;;;;;;;-13.35;93.11;100705.19;10527730;28;20033;-66
2024/01/12 12:16:41;;;;;;;3.67;2.13;;;;;;;-13.26;92.90;100703.59;10511125;28;20126;-64
2024/01/12 12:21:43;;;;;;;10.40;5.57;;;;;;;-13.29;93.30;100717.88;10513827;28;20523;-64
2024/01/12 12:26:45;;;;;;;8.07;4.32;;;;;;;-13.27;93.29;100717.75;10515478;28;20051;-66
2024/01/12 12:31:48;;;;;;;4.10;2.88;;;;;;;-13.24;92.96;100712.22;10497127;28;20029;-66
2024/01/12 12:36:50;;;;;;;10.40;4.35;;;;;;;-13.34;92.48;100722.69;10518912;28;20033;-66
2024/01/12 12:41:53;;;;;;;13.90;6.63;;;;;;;-13.36;91.58;100719.34;10498200;28;20043;-66
2024/01/12 12:46:56;;;;;;;8.80;4.32;;;;;;;-13.43;92.26;100723.44;10515752;28;20044;-66
2024/01/12 12:51:59;;;;;;;4.88;3.20;;;;;;;-13.31;91.93;100719.81;10513189;28;20040;-67
2024/01/12 12:57:03;;;;;;;1.48;1.38;;;;;;;-13.18;92.13;100727.56;10517181;28;20447;-68
2024/01/12 13:02:05;;;;;;;1.50;1.38;;;;;;;-13.20;92.42;100721.53;10507494;28;20035;-67
2024/01/12 13:07:09;;;;;;;7.93;3.85;;;;;;;-13.24;91.66;100720.13;10491241;28;20041;-69
2024/01/12 13:12:12;;;;;;;8.55;4.57;;;;;;;-13.24;91.84;100723.59;10498373;28;20054;-68
2024/01/12 13:17:15;;;;;;;7.60;5.00;;;;;;;-13.14;92.67;100742.97;10523146;28;20044;-69
2024/01/12 13:22:17;;;;;;;9.95;4.72;;;;;;;-12.95;92.30;100734.38;10524734;28;20036;-70
2024/01/12 13:27:21;;;;;;;14.02;6.70;;;;;;;-12.96;92.92;100729.22;10526453;28;20424;-68
2024/01/12 13:32:23;;;;;;;6.75;3.65;;;;;;;-12.95;93.10;100731.72;10522404;28;20039;-69
2024/01/12 13:37:26;;;;;;;11.45;5.72;;;;;;;-12.90;92.82;100744.53;10501987;28;20056;-68
2024/01/12 13:42:28;;;;;;;13.95;7.65;;;;;;;-12.93;93.03;100763.28;10517355;28;20037;-65
2024/01/12 13:47:31;;;;;;;7.38;4.93;;;;;;;-12.97;92.79;100764.53;10516217;28;20071;-64
2024/01/12 13:52:34;;;;;;;9.23;5.20;;;;;;;-12.94;93.06;100759.81;10518025;28;20041;-67
2024/01/12 13:57:37;;;;;;;9.95;4.60;;;;;;;-12.91;92.10;100767.47;10523261;28;20036;-67
2024/01/12 14:02:40;;;;;;;10.77;6.05;;;;;;;-12.89;92.31;100777.91;10523334;28;20036;-67
2024/01/12 14:07:42;;;;;;;9.77;5.60;;;;;;;-12.88;92.78;100783.06;10522703;28;20138;-66
2024/01/12 14:12:45;;;;;;;14.98;6.65;;;;;;;-12.86;92.51;100777.66;10512888;28;20032;-67
2024/01/12 14:17:48;;;;;;;12.40;6.15;;;;;;;-12.83;92.10;100785.34;10498314;28;20040;-65
2024/01/12 14:22:50;;;;;;;14.48;5.85;;;;;;;-12.65;92.33;100796.19;10519618;28;20095;-65
2024/01/12 14:27:53;;;;;;;6.82;4.68;;;;;;;-12.44;92.61;100804.13;10501069;28;20047;-66
2024/01/12 14:32:56;;;;;;;10.38;4.68;;;;;;;-12.20;91.81;100807.31;10486087;28;20024;-67
2024/01/12 14:37:59;;;;;;;9.10;4.28;;;;;;;-12.02;91.51;100812.84;10496798;28;20037;-64
2024/01/12 14:43:01;;;;;;;4.07;3.42;;;;;;;-11.92;91.10;100825.16;10507188;28;20040;-65
2024/01/12 14:48:05;;;;;;;16.25;6.75;;;;;;;-11.82;90.57;100825.19;10489744;28;20036;-69
2024/01/12 14:53:08;;;;;;;5.80;3.50;;;;;;;-11.61;90.68;100828.59;10532809;28;20534;-70
2024/01/12 14:58:11;;;;;;;7.85;3.85;;;;;;;-11.44;90.36;100842.19;10506777;28;20044;-68
2024/01/12 15:03:13;;;;;;;5.97;2.38;;;;;;;-11.42;89.59;100854.31;10508587;28;20496;-69
2024/01/12 15:08:21;;;;;;;3.30;2.50;;;;;;;-11.43;89.74;100852.63;10464990;28;20052;-67
2024/01/12 15:13:23;;;;;;;3.45;2.88;;;;;;;-11.38;89.66;100860.16;10508063;28;20055;-66
2024/01/12 15:18:26;;;;;;;7.60;4.82;;;;;;;-11.39;90.02;100846.09;10519854;28;20044;-66
2024/01/12 15:23:28;;;;;;;7.25;4.50;;;;;;;-11.40;89.66;100862.94;10528880;28;20037;-67
2024/01/12 15:28:32;;;;;;;11.00;5.97;;;;;;;-11.38;90.02;100865.47;10535669;28;20040;-67
2024/01/12 15:33:35;;;;;;;9.43;5.43;;;;;;;-11.34;89.71;100872.16;10543177;28;20036;-67
2024/01/12 15:38:37;;;;;;;7.68;3.55;;;;;;;-11.26;90.87;100870.53;10538376;28;20120;-67
2024/01/12 15:43:40;;;;;;;5.93;4.05;;;;;;;-11.19;90.23;100877.91;10526666;28;20051;-67
2024/01/12 15:48:43;;;;;;;6.63;4.00;;;;;;;-11.10;90.62;100879.78;10506079;28;20064;-67
2024/01/12 15:53:45;;;;;;;10.30;4.93;;;;;;;-11.02;90.49;100877.25;10503244;28;20044;-67
2024/01/12 15:58:47;;;;;;;5.60;3.67;;;;;;;-11.08;90.76;100880.47;10515923;28;20451;-68
2024/01/12 16:03:51;;;;;;;9.55;4.28;;;;;;;-10.99;90.38;100888.41;10509343;28;20033;-66
2024/01/12 16:08:55;;;;;;;7.20;3.85;;;;;;;-10.86;90.79;100888.19;10526804;28;20043;-67
2024/01/12 16:13:58;;;;;;;6.40;3.83;;;;;;;-10.76;90.28;100898.78;10524979;28;20032;-67
2024/01/12 16:19:01;;;;;;;5.18;2.25;;;;;;;-10.72;90.95;100911.66;10528520;28;20085;-66
2024/01/12 16:24:04;;;;;;;6.38;3.22;;;;;;;-10.65;90.74;100907.44;10527854;28;20036;-66
2024/01/12 16:29:07;;;;;;;8.43;2.75;;;;;;;-10.78;90.22;100917.47;10525180;28;20045;-67
2024/01/12 16:34:12;;;;;;;6.57;4.10;;;;;;;-10.68;90.16;100914.84;10526675;28;20040;-66
2024/01/12 16:39:17;;;;;;;4.82;3.20;;;;;;;-10.71;90.23;100912.47;10529200;28;20037;-66
2024/01/12 16:44:20;;;;;;;5.57;3.40;;;;;;;-10.72;90.73;100934.66;10528835;28;20037;-66
2024/01/12 16:49:22;;;;;;;6.35;2.95;;;;;;;-10.74;90.71;100929.50;10494276;28;20056;-66
2024/01/12 16:54:25;;;;;;;10.75;4.13;;;;;;;-10.86;90.74;100941.19;10525614;28;20043;-65
2024/01/12 16:59:29;;;;;;;5.80;2.22;;;;;;;-10.85;90.87;100956.09;10526175;28;20040;-66
2024/01/12 17:04:33;;;;;;;5.15;3.00;;;;;;;-10.92;91.26;100962.09;10520378;28;20531;-65
2024/01/12 17:09:35;;;;;;;4.85;3.50;;;;;;;-10.95;91.66;100964.00;10525863;28;20036;-66
2024/01/12 17:14:37;;;;;;;1.80;1.67;;;;;;;-10.98;91.74;100982.84;10509567;28;20048;-66
2024/01/12 17:19:40;;;;;;;5.50;2.53;;;;;;;-10.93;92.48;100971.00;10525572;28;20047;-66
2024/01/12 17:24:42;;;;;;;6.25;2.63;;;;;;;-10.84;92.58;100975.50;10527173;28;20037;-66
2024/01/12 17:29:44;;;;;;;5.25;2.30;;;;;;;-10.77;92.74;100980.13;10531341;28;20036;-66
2024/01/12 17:34:46;;;;;;;4.72;2.92;;;;;;;-10.90;92.11;100984.84;10527520;28;20039;-66
2024/01/12 17:39:48;;;;;;;1.13;1.02;;;;;;;-10.93;92.76;100982.47;10513189;28;20559;-68
2024/01/12 17:44:51;;;;;;;2.50;0.70;;;;;;;-11.06;93.23;100981.84;10508236;28;20043;-66
2024/01/12 17:49:54;;;;;;;2.38;1.48;;;;;;;-11.02;92.63;100996.50;10502503;28;20068;-66
2024/01/12 17:54:56;;;;;;;5.60;2.50;;;;;;;-11.09;92.57;101003.31;10525400;28;20036;-66
2024/01/12 17:59:58;;;;;;;1.95;1.20;;;;;;;-11.19;92.74;101007.72;10523952;28;20055;-65
2024/01/12 18:05:01;;;;;;;2.72;1.17;;;;;;;-11.41;93.01;101006.91;10525290;28;20051;-66
2024/01/12 18:10:03;;;;;;;1.83;0.98;;;;;;;-11.59;92.73;101008.47;10523270;28;20040;-66
2024/01/12 18:15:06;;;;;;;1.55;1.45;;;;;;;-11.74;92.43;101020.34;10507074;28;20032;-67
2024/01/12 18:20:10;;;;;;;0.60;0.60;;;;;;;-11.78;92.36;101021.59;10505234;28;20043;-66
2024/01/12 18:25:12;;;;;;;2.40;1.42;;;;;;;-11.81;91.47;101027.97;10516212;28;20039;-65
2024/01/12 18:30:14;;;;;;;3.50;1.52;;;;;;;-11.72;91.41;101031.63;10524141;28;20032;-63
2024/01/12 18:35:17;;;;;;;3.78;1.33;;;;;;;-11.70;91.13;101029.69;10524304;28;20524;-64
2024/01/12 18:40:19;;;;;;;5.47;2.05;;;;;;;-11.64;91.58;101027.38;10509114;28;20049;-66
2024/01/12 18:45:22;;;;;;;3.20;1.77;;;;;;;-11.68;90.85;101023.31;10496116;28;20448;-64
2024/01/12 18:50:24;;;;;;;6.97;2.20;;;;;;;-11.66;90.89;101036.41;10523113;28;20064;-65
2024/01/12 18:55:26;;;;;;;1.95;1.30;;;;;;;-11.77;90.27;101052.38;10524165;28;20036;-64
2024/01/12 19:00:29;;;;;;;0.77;0.77;;;;;;;-11.88;90.26;101054.09;10524203;28;20051;-65
2024/01/12 19:05:32;;;;;;;2.45;1.58;;;;;;;-11.85;90.08;101062.75;10512650;28;20518;-66
2024/01/12 19:10:35;;;;;;;3.38;1.77;;;;;;;-11.88;89.36;101071.78;10511797;28;20032;-68
2024/01/12 19:15:39;;;;;;;2.45;1.50;;;;;;;-11.87;88.86;101060.25;10516709;28;20400;-65
2024/01/12 19:20:41;;;;;;;4.05;1.90;;;;;;;-11.95;88.63;101060.88;10515676;28;20047;-66
2024/01/12 19:25:44;;;;;;;3.72;1.50;;;;;;;-11.90;89.13;101063.97;10507383;28;20531;-65
2024/01/12 19:30:47;;;;;;;4.05;1.10;;;;;;;-11.94;88.15;101075.78;10490836;28;20028;-74
2024/01/12 19:35:50;;;;;;;3.30;1.13;;;;;;;-11.91;89.07;101080.81;10509049;28;20032;-68
2024/01/12 19:40:53;;;;;;;6.18;2.15;;;;;;;-11.99;88.85;101082.41;10509363;28;20036;-68
2024/01/12 19:45:55;;;;;;;4.18;1.73;;;;;;;-12.03;87.96;101100.34;10496994;28;20040;-70
2024/01/12 19:50:59;;;;;;;3.85;2.10;;;;;;;-12.02;88.20;101102.03;10511707;28;20610;-68
2024/01/12 19:56:02;;;;;;;6.25;2.75;;;;;;;-11.98;88.26;101100.78;10508664;28;20064;-68
2024/01/12 20:01:09;;;;;;;5.28;2.90;;;;;;;-11.97;88.15;101089.28;10496953;28;20045;-68
2024/01/12 20:06:11;;;;;;;6.15;2.90;;;;;;;-12.06;88.12;101103.25;10506848;28;20048;-68
2024/01/12 20:11:14;;;;;;;5.00;2.40;;;;;;;-12.16;88.34;101102.28;10512830;28;20048;-67
2024/01/12 20:16:16;;;;;;;6.03;2.65;;;;;;;-12.17;88.56;101109.38;10514169;28;20043;-66
2024/01/12 20:21:19;;;;;;;3.88;2.33;;;;;;;-12.11;88.11;101110.72;10518819;28;20048;-68
2024/01/12 20:26:25;;;;;;;4.90;2.22;;;;;;;-12.15;88.19;101114.53;10514385;28;20037;-67
2024/01/12 20:31:28;;;;;;;6.40;2.30;;;;;;;-12.18;88.69;101109.50;10512540;28;20036;-66
2024/01/12 20:36:32;;;;;;;3.95;2.13;;;;;;;-12.22;88.01;101102.78;10519766;28;20582;-66
2024/01/12 20:41:34;;;;;;;3.53;2.10;;;;;;;-12.29;88.12;101106.91;10526325;28;20062;-65
2024/01/12 20:46:38;;;;;;;4.40;2.35;;;;;;;-12.41;87.99;101118.44;10499416;28;20425;-67
2024/01/12 20:51:40;;;;;;;5.15;2.30;;;;;;;-12.45;88.12;101107.28;10520046;28;20040;-67
2024/01/12 20:56:42;;;;;;;6.85;2.78;;;;;;;-12.44;88.44;101121.34;10498897;28;20033;-66
2024/01/12 21:01:45;;;;;;;6.03;2.40;;;;;;;-12.56;88.65;101102.00;10503476;28;20041;-66
2024/01/12 21:06:47;;;;;;;4.85;2.80;;;;;;;-12.61;88.62;101096.25;10504701;28;20037;-68
2024/01/12 21:11:51;;;;;;;5.55;2.60;;;;;;;-12.77;88.25;101096.59;10527667;28;20037;-67
2024/01/12 21:16:55;;;;;;;2.58;1.25;;;;;;;-12.82;88.31;101109.34;10503711;28;20045;-67
2024/01/12 21:21:58;;;;;;;4.93;2.28;;;;;;;-12.91;88.57;101123.25;10509310;28;20133;-68
2024/01/12 21:27:01;;;;;;;7.32;2.75;;;;;;;-13.05;88.62;101128.75;10509680;28;20568;-68
2024/01/12 21:32:06;;;;;;;4.95;2.17;;;;;;;-13.16;88.75;101121.66;10519936;28;20059;-67
2024/01/12 21:37:11;;;;;;;6.57;2.42;;;;;;;-13.28;88.72;101133.16;10515252;28;20057;-67
2024/01/12 21:42:14;;;;;;;4.05;2.17;;;;;;;-13.37;88.80;101144.41;10503744;28;20531;-66
2024/01/12 21:47:17;;;;;;;8.73;2.92;;;;;;;-13.41;88.75;101149.06;10513703;28;20052;-67
2024/01/12 21:52:21;;;;;;;4.15;2.33;;;;;;;-13.50;89.39;101149.78;10509927;28;20041;-66
2024/01/12 21:57:25;;;;;;;3.70;1.90;;;;;;;-13.57;89.09;101137.97;10518211;28;20094;-66
2024/01/12 22:02:29;;;;;;;4.82;2.38;;;;;;;-13.48;88.69;101142.59;10523758;28;20524;-67
2024/01/12 22:07:33;;;;;;;4.68;2.13;;;;;;;-13.46;89.16;101140.66;10516212;28;20037;-67
2024/01/12 22:12:35;;;;;;;9.10;2.53;;;;;;;-13.34;89.67;101141.56;10523286;28;20040;-65
2024/01/12 22:17:37;;;;;;;6.32;2.42;;;;;;;-13.32;89.01;101143.13;10518204;28;20629;-66
2024/01/12 22:22:41;;;;;;;4.25;2.22;;;;;;;-13.43;89.70;101136.00;10524493;28;20039;-67
2024/01/12 22:27:48;;;;;;;3.83;2.15;;;;;;;-13.45;89.52;101140.56;10506642;28;20036;-67
2024/01/12 22:32:50;;;;;;;5.82;2.35;;;;;;;-13.41;89.02;101149.91;10522875;28;20043;-66
2024/01/12 22:37:56;;;;;;;7.25;2.58;;;;;;;-13.19;89.93;101150.94;10506194;28;20745;-66
2024/01/12 22:42:58;;;;;;;5.93;3.30;;;;;;;-13.11;89.23;101146.75;10510416;28;20035;-67
2024/01/12 22:48:01;;;;;;;4.90;2.20;;;;;;;-12.96;89.48;101152.66;10491467;28;20052;-66
2024/01/12 22:53:05;;;;;;;4.35;2.33;;;;;;;-12.86;88.60;101147.50;10507136;28;20534;-66
2024/01/12 22:58:08;;;;;;;7.53;3.13;;;;;;;-12.89;88.58;101150.38;10522667;28;20044;-67